Time;durP1;ratioP1;P1;durP2;ratioP2;P2;SDS_P1;SDS_P2;PMS_P1;PMS_P2;Temp;Humidity;BMP_temperature;BMP_pressure;BME280_temperature;BME280_humidity;BME280_pressure;Samples;Min_cycle;Max_cycle;Signal;HPM_P1;HPM_P2
2022/05/05 00:00:47;;;;;;;10.32;6.53;;;6.80;99.90;;;;;;5119175;28;20062;-67
2022/05/05 00:03:12;;;;;;;10.32;6.80;;;6.70;99.90;;;;;;5099996;28;20044;-67
2022/05/05 00:05:38;;;;;;;13.32;7.35;;;6.70;99.90;;;;;;5108637;28;20403;-67
2022/05/05 00:08:04;;;;;;;11.43;6.80;;;6.60;99.90;;;;;;5125568;28;20127;-67
2022/05/05 00:15:58;;;;;;;12.63;7.70;;;6.60;99.90;;;;;;5112742;28;20111;-67
2022/05/05 00:18:24;;;;;;;9.55;7.28;;;6.50;99.90;;;;;;5123748;28;20083;-67
2022/05/05 00:20:50;;;;;;;14.75;6.90;;;6.60;99.90;;;;;;5123818;28;20055;-67
2022/05/05 00:23:15;;;;;;;12.05;6.57;;;6.60;99.90;;;;;;5119369;28;20086;-67
2022/05/05 00:25:41;;;;;;;13.05;7.68;;;6.60;99.90;;;;;;5119975;28;20080;-67
2022/05/05 00:28:07;;;;;;;8.95;6.25;;;6.60;99.90;;;;;;5123856;28;20035;-66
2022/05/05 00:30:32;;;;;;;11.00;7.18;;;6.40;99.90;;;;;;5124041;28;20055;-67
2022/05/05 00:32:58;;;;;;;11.57;7.40;;;6.40;99.90;;;;;;5118708;28;20047;-67
2022/05/05 00:35:24;;;;;;;10.90;7.55;;;6.50;99.90;;;;;;5122610;28;20039;-67
2022/05/05 00:37:49;;;;;;;12.23;6.88;;;6.30;99.90;;;;;;5124056;28;20047;-67
2022/05/05 00:40:15;;;;;;;15.57;7.55;;;6.30;99.90;;;;;;5124282;28;20063;-67
2022/05/05 00:42:41;;;;;;;11.48;6.72;;;6.20;99.90;;;;;;5123401;28;20574;-67
2022/05/05 00:45:07;;;;;;;14.98;8.00;;;6.30;99.90;;;;;;5124054;28;20579;-67
2022/05/05 00:47:33;;;;;;;11.60;7.05;;;6.30;99.90;;;;;;5124610;28;20039;-67
2022/05/05 00:49:59;;;;;;;13.10;8.48;;;6.30;99.90;;;;;;5120910;28;20095;-66
2022/05/05 00:52:26;;;;;;;13.98;7.32;;;6.30;99.90;;;;;;5122690;28;20043;-66
2022/05/05 00:54:55;;;;;;;11.70;7.28;;;6.40;99.90;;;;;;5120252;28;20044;-67
2022/05/05 00:57:21;;;;;;;13.35;8.15;;;6.50;99.90;;;;;;5122339;28;20039;-67
2022/05/05 00:59:47;;;;;;;10.98;8.35;;;6.50;99.90;;;;;;5120210;28;20052;-67
2022/05/05 01:02:13;;;;;;;11.68;7.70;;;6.60;99.90;;;;;;5106620;28;20044;-67
2022/05/05 01:04:40;;;;;;;11.68;7.97;;;6.70;99.90;;;;;;5117046;28;20054;-67
2022/05/05 01:07:06;;;;;;;14.07;6.85;;;6.70;99.90;;;;;;5120522;28;20052;-67
2022/05/05 01:09:32;;;;;;;12.23;8.23;;;6.50;99.90;;;;;;5120534;28;20577;-67
2022/05/05 01:11:57;;;;;;;10.40;7.53;;;6.50;99.90;;;;;;5123966;28;20108;-67
2022/05/05 01:14:23;;;;;;;16.27;8.88;;;6.50;99.90;;;;;;5123350;28;20100;-67
2022/05/05 01:16:49;;;;;;;12.25;8.00;;;6.50;99.90;;;;;;5122927;28;20111;-67
2022/05/05 01:19:14;;;;;;;14.00;8.90;;;6.40;99.90;;;;;;5123307;28;20055;-67
2022/05/05 01:21:41;;;;;;;11.05;8.85;;;6.50;99.90;;;;;;5120202;28;20099;-66
2022/05/05 01:24:06;;;;;;;14.52;7.68;;;6.50;99.90;;;;;;5138543;27;20062;-67
2022/05/05 01:29:17;;;;;;;11.32;7.25;;;6.60;99.90;;;;;;5123738;28;20046;-67
2022/05/05 01:31:44;;;;;;;18.02;8.30;;;6.70;99.90;;;;;;5122237;28;20040;-67
2022/05/05 01:34:10;;;;;;;11.63;7.90;;;6.50;99.90;;;;;;5114830;28;20044;-67
2022/05/05 01:36:36;;;;;;;9.40;7.03;;;6.50;99.90;;;;;;5120022;28;20103;-67
2022/05/05 01:39:02;;;;;;;14.25;8.27;;;6.40;99.90;;;;;;5117829;28;20083;-67
2022/05/05 01:41:27;;;;;;;12.07;7.97;;;6.30;99.90;;;;;;5119580;28;20048;-67
2022/05/05 01:43:53;;;;;;;11.75;7.93;;;6.40;99.90;;;;;;5105536;28;20083;-67
2022/05/05 01:46:19;;;;;;;10.25;7.85;;;6.30;99.90;;;;;;5123948;28;20064;-67
2022/05/05 01:48:44;;;;;;;13.73;8.18;;;6.30;99.90;;;;;;5118913;28;20051;-67
2022/05/05 01:51:10;;;;;;;15.20;8.15;;;6.40;99.90;;;;;;5119864;28;20048;-67
2022/05/05 01:53:36;;;;;;;13.98;7.82;;;6.30;99.90;;;;;;5118737;28;20050;-67
2022/05/05 01:56:20;;;;;;;12.50;8.68;;;6.20;99.90;;;;;;5123148;28;20047;-67
2022/05/05 01:58:46;;;;;;;14.15;8.65;;;6.20;99.90;;;;;;5119793;28;20047;-67
2022/05/05 02:01:12;;;;;;;15.70;9.07;;;6.20;99.90;;;;;;5121140;28;20895;-67
2022/05/05 02:03:38;;;;;;;14.70;10.07;;;6.00;99.90;;;;;;5135611;28;20055;-67
2022/05/05 02:06:05;;;;;;;13.98;10.80;;;6.10;99.90;;;;;;5122885;28;20051;-67
2022/05/05 02:08:32;;;;;;;15.07;9.73;;;6.10;99.90;;;;;;5121268;28;20059;-67
2022/05/05 02:10:58;;;;;;;13.25;9.63;;;6.10;99.90;;;;;;5122053;28;20086;-67
2022/05/05 02:13:23;;;;;;;10.88;8.95;;;6.30;99.90;;;;;;5122607;28;20047;-67
2022/05/05 02:15:49;;;;;;;11.90;8.90;;;6.20;99.90;;;;;;5120626;28;20092;-66
2022/05/05 02:18:15;;;;;;;16.80;9.75;;;6.20;99.90;;;;;;5118836;28;20107;-67
2022/05/05 02:20:41;;;;;;;15.50;8.90;;;6.20;99.90;;;;;;5123381;28;20067;-67
2022/05/05 02:23:08;;;;;;;10.88;8.35;;;6.20;99.90;;;;;;5119726;28;20051;-67
2022/05/05 02:25:33;;;;;;;11.38;8.02;;;6.20;99.90;;;;;;5118871;28;20052;-67
2022/05/05 02:28:00;;;;;;;12.88;8.20;;;6.10;99.90;;;;;;5122515;28;20036;-67
2022/05/05 02:30:27;;;;;;;11.48;7.60;;;6.10;99.90;;;;;;5124117;28;20062;-67
2022/05/05 02:32:53;;;;;;;13.13;7.70;;;5.90;99.90;;;;;;5122234;28;20048;-67
2022/05/05 02:35:20;;;;;;;10.57;7.85;;;5.70;99.90;;;;;;5123766;28;20120;-67
2022/05/05 02:40:31;;;;;;;13.23;8.65;;;5.70;99.90;;;;;;5122516;28;20063;-67
2022/05/05 02:42:58;;;;;;;15.75;8.88;;;5.70;99.90;;;;;;5119468;28;20040;-67
2022/05/05 02:45:24;;;;;;;14.85;8.93;;;5.60;99.90;;;;;;5118271;28;20054;-67
2022/05/05 02:47:50;;;;;;;12.95;9.30;;;5.70;99.90;;;;;;5120118;28;20044;-67
2022/05/05 02:50:17;;;;;;;13.25;8.63;;;5.60;99.90;;;;;;5122952;28;20051;-67
2022/05/05 02:52:43;;;;;;;17.17;10.27;;;5.60;99.90;;;;;;5144402;27;20043;-67
2022/05/05 02:55:08;;;;;;;15.23;9.00;;;5.70;99.90;;;;;;5125754;28;20044;-67
2022/05/05 02:57:34;;;;;;;11.32;8.80;;;5.80;99.90;;;;;;5126866;28;20074;-67
2022/05/05 03:00:01;;;;;;;17.65;8.60;;;5.80;99.90;;;;;;5125580;28;20054;-67
2022/05/05 03:02:26;;;;;;;14.25;8.98;;;5.80;99.90;;;;;;5121283;28;20100;-66
2022/05/05 03:04:52;;;;;;;17.15;9.18;;;5.80;99.90;;;;;;5123936;28;20040;-67
2022/05/05 03:07:18;;;;;;;13.80;9.32;;;5.80;99.90;;;;;;5124484;28;20060;-67
2022/05/05 03:09:44;;;;;;;11.27;8.98;;;5.70;99.90;;;;;;5116467;28;20118;-67
2022/05/05 03:12:10;;;;;;;14.45;9.60;;;5.70;99.90;;;;;;5121440;28;20763;-67
2022/05/05 03:14:37;;;;;;;15.60;10.00;;;5.70;99.90;;;;;;5122940;28;20035;-67
2022/05/05 03:17:03;;;;;;;14.07;10.75;;;5.60;99.90;;;;;;5124796;28;20044;-67
2022/05/05 03:19:29;;;;;;;14.90;10.90;;;5.60;99.90;;;;;;5107453;28;20082;-67
2022/05/05 03:21:55;;;;;;;15.68;10.98;;;5.70;99.90;;;;;;5124490;28;20040;-67
2022/05/05 03:24:21;;;;;;;17.83;11.52;;;5.50;99.90;;;;;;5126352;28;20054;-66
2022/05/05 03:26:47;;;;;;;12.60;9.80;;;5.60;99.90;;;;;;5126114;28;20055;-67
2022/05/05 03:29:13;;;;;;;15.85;9.77;;;5.60;99.90;;;;;;5122446;28;20052;-67
2022/05/05 03:31:39;;;;;;;17.23;10.73;;;5.60;99.90;;;;;;5124526;28;20104;-67
2022/05/05 03:34:05;;;;;;;15.77;10.25;;;5.50;99.90;;;;;;5119773;28;20047;-67
2022/05/05 03:36:32;;;;;;;13.73;10.85;;;5.60;99.90;;;;;;5125115;28;20048;-66
2022/05/05 03:38:58;;;;;;;16.75;12.68;;;5.60;99.90;;;;;;5142323;27;20039;-67
2022/05/05 03:41:23;;;;;;;15.52;10.82;;;5.60;99.90;;;;;;5105643;28;20415;-67
2022/05/05 03:43:49;;;;;;;17.60;12.40;;;5.60;99.90;;;;;;5109242;28;20062;-67
2022/05/05 03:46:15;;;;;;;19.65;11.23;;;5.70;99.90;;;;;;5125153;28;20554;-67
2022/05/05 03:48:41;;;;;;;14.65;11.18;;;5.80;99.90;;;;;;5108770;28;20043;-67
2022/05/05 03:51:07;;;;;;;13.23;10.35;;;5.70;99.90;;;;;;5084597;28;20067;-67
2022/05/05 03:53:33;;;;;;;17.02;11.23;;;5.70;99.90;;;;;;5120623;28;20055;-67
2022/05/05 03:55:59;;;;;;;16.55;11.43;;;5.70;99.90;;;;;;5126192;28;20051;-67
2022/05/05 03:58:28;;;;;;;17.05;11.10;;;5.80;99.90;;;;;;5108691;28;20046;-67
2022/05/05 04:00:54;;;;;;;17.23;11.63;;;5.80;99.90;;;;;;5124959;28;20066;-67
2022/05/05 04:03:31;;;;;;;13.60;10.43;;;5.80;99.90;;;;;;5116451;28;20079;-67
2022/05/05 04:06:05;;;;;;;15.40;10.82;;;5.90;99.90;;;;;;5121370;28;20061;-66
2022/05/05 04:08:32;;;;;;;16.33;10.93;;;5.90;99.90;;;;;;5100793;28;20044;-67
2022/05/05 04:10:58;;;;;;;15.68;10.95;;;6.00;99.90;;;;;;5120872;28;20059;-66
2022/05/05 04:13:25;;;;;;;14.95;10.43;;;6.00;99.90;;;;;;5119225;28;20040;-67
2022/05/05 04:15:51;;;;;;;19.45;11.48;;;5.90;99.90;;;;;;5121723;28;20047;-67
2022/05/05 04:18:17;;;;;;;16.85;10.70;;;5.90;99.90;;;;;;5120066;28;20118;-67
2022/05/05 04:20:43;;;;;;;16.50;12.27;;;6.00;99.90;;;;;;5119671;28;20166;-67
2022/05/05 04:23:10;;;;;;;19.95;13.45;;;6.00;99.90;;;;;;5110951;28;20096;-67
2022/05/05 04:25:40;;;;;;;16.95;11.57;;;6.00;99.90;;;;;;5120902;28;20044;-67
2022/05/05 04:28:07;;;;;;;20.08;12.50;;;6.00;99.90;;;;;;5121235;28;20036;-66
2022/05/05 04:30:33;;;;;;;18.35;11.95;;;6.00;99.90;;;;;;5118065;28;20051;-66
2022/05/05 04:32:59;;;;;;;16.27;12.07;;;6.00;99.90;;;;;;5120205;28;20078;-67
2022/05/05 04:35:25;;;;;;;15.25;11.00;;;6.10;99.90;;;;;;5122433;28;20035;-67
2022/05/05 04:37:50;;;;;;;17.75;11.65;;;6.20;99.90;;;;;;5119663;28;20063;-67
2022/05/05 04:40:16;;;;;;;14.57;11.45;;;6.20;99.90;;;;;;5123401;28;20511;-66
2022/05/05 04:42:42;;;;;;;17.02;11.70;;;6.30;99.90;;;;;;5125050;28;20031;-67
2022/05/05 04:45:08;;;;;;;19.90;12.73;;;6.30;99.90;;;;;;5119413;28;20441;-67
2022/05/05 04:47:34;;;;;;;21.92;12.20;;;6.40;99.90;;;;;;5124393;28;20101;-67
2022/05/05 04:50:00;;;;;;;20.65;13.25;;;6.50;99.90;;;;;;5124773;28;20051;-67
2022/05/05 04:52:26;;;;;;;19.50;13.68;;;6.60;99.90;;;;;;5121975;28;20047;-67
2022/05/05 04:54:51;;;;;;;20.45;14.63;;;6.70;99.90;;;;;;5123450;28;20081;-66
2022/05/05 04:57:17;;;;;;;22.40;14.90;;;6.70;99.90;;;;;;5121629;28;20526;-67
2022/05/05 04:59:43;;;;;;;19.85;14.73;;;6.80;99.90;;;;;;5119914;28;20122;-67
2022/05/05 05:02:09;;;;;;;21.33;14.55;;;6.90;99.90;;;;;;5122258;28;20039;-66
2022/05/05 05:04:35;;;;;;;25.30;16.10;;;6.90;99.90;;;;;;5107650;28;20043;-67
2022/05/05 05:07:01;;;;;;;23.08;14.85;;;7.00;99.90;;;;;;5119135;28;20105;-66
2022/05/05 05:09:26;;;;;;;18.55;13.65;;;7.10;99.90;;;;;;5119256;28;20055;-67
2022/05/05 05:11:52;;;;;;;19.17;12.88;;;7.10;99.90;;;;;;5123484;28;20050;-67
2022/05/05 05:14:18;;;;;;;21.23;12.43;;;7.20;99.90;;;;;;5139481;27;20062;-66
2022/05/05 05:16:43;;;;;;;19.60;12.50;;;7.30;99.90;;;;;;5111419;28;20126;-67
2022/05/05 05:19:09;;;;;;;19.77;13.00;;;7.30;99.90;;;;;;5124174;28;20126;-67
2022/05/05 05:21:35;;;;;;;19.95;13.35;;;7.50;99.90;;;;;;5118913;28;20050;-67
2022/05/05 05:24:02;;;;;;;17.90;12.55;;;7.40;99.90;;;;;;5117784;28;20488;-66
2022/05/05 05:26:28;;;;;;;23.88;14.02;;;7.40;99.90;;;;;;5089008;28;20044;-63
2022/05/05 05:28:54;;;;;;;21.73;14.50;;;7.50;99.90;;;;;;5122600;28;20051;-63
2022/05/05 05:31:21;;;;;;;16.17;13.45;;;7.60;99.90;;;;;;5122123;28;20556;-64
2022/05/05 05:33:47;;;;;;;18.65;13.38;;;7.70;99.90;;;;;;5135594;27;20438;-63
2022/05/05 05:36:13;;;;;;;17.10;13.30;;;7.80;99.90;;;;;;5118347;28;20411;-64
2022/05/05 05:38:39;;;;;;;19.67;14.00;;;7.70;99.90;;;;;;5059928;28;20105;-63
2022/05/05 05:41:05;;;;;;;21.85;14.65;;;7.70;99.90;;;;;;5092017;28;20059;-64
2022/05/05 05:43:30;;;;;;;19.30;14.07;;;7.80;99.90;;;;;;5089626;28;20036;-64
2022/05/05 05:45:56;;;;;;;20.70;15.52;;;7.90;99.90;;;;;;5083696;28;20052;-65
2022/05/05 05:48:22;;;;;;;20.98;15.35;;;7.90;99.90;;;;;;5094264;28;20304;-65
2022/05/05 05:50:47;;;;;;;21.77;15.48;;;8.00;99.90;;;;;;5096520;28;20031;-62
2022/05/05 05:53:13;;;;;;;19.50;14.55;;;8.10;99.90;;;;;;5083559;28;20052;-63
2022/05/05 05:55:39;;;;;;;21.15;15.07;;;8.10;99.90;;;;;;5108732;28;20056;-62
2022/05/05 05:58:04;;;;;;;21.15;15.35;;;8.30;99.90;;;;;;5093725;28;20142;-62
2022/05/05 06:00:32;;;;;;;17.92;14.85;;;8.30;99.90;;;;;;5094783;28;20051;-65
2022/05/05 06:05:42;;;;;;;18.88;16.92;;;8.50;99.90;;;;;;5102155;28;20062;-65
2022/05/05 06:08:08;;;;;;;25.67;17.20;;;8.50;99.90;;;;;;5113859;28;20052;-65
2022/05/05 06:10:36;;;;;;;27.15;16.98;;;8.60;99.90;;;;;;5117056;28;20051;-66
2022/05/05 06:13:02;;;;;;;23.88;16.92;;;8.70;99.90;;;;;;5086387;28;20047;-65
2022/05/05 06:15:28;;;;;;;21.70;16.10;;;8.80;99.90;;;;;;5099265;28;20075;-65
2022/05/05 06:17:54;;;;;;;25.45;16.30;;;8.80;99.90;;;;;;5088421;28;20507;-65
2022/05/05 06:20:20;;;;;;;19.83;14.75;;;9.00;99.90;;;;;;5104138;28;20051;-66
2022/05/05 06:22:46;;;;;;;21.17;13.93;;;8.90;99.90;;;;;;5112554;28;20044;-68
2022/05/05 06:25:11;;;;;;;18.30;13.52;;;9.10;99.90;;;;;;5117023;28;20099;-67
2022/05/05 06:27:38;;;;;;;18.27;13.93;;;9.10;99.90;;;;;;5144211;27;20055;-67
2022/05/05 06:30:06;;;;;;;17.33;12.25;;;9.40;99.90;;;;;;5123439;28;20543;-67
2022/05/05 06:32:32;;;;;;;24.77;14.30;;;9.40;99.90;;;;;;5126327;28;20067;-67
2022/05/05 06:34:58;;;;;;;19.48;13.55;;;9.60;99.90;;;;;;5121954;28;20052;-67
2022/05/05 06:37:24;;;;;;;15.77;12.38;;;9.70;99.90;;;;;;5117725;28;20044;-67
2022/05/05 06:39:50;;;;;;;19.08;13.38;;;9.80;99.90;;;;;;5118902;28;20051;-67
2022/05/05 06:42:16;;;;;;;17.20;11.68;;;10.10;99.90;;;;;;5126735;28;20483;-67
2022/05/05 06:44:42;;;;;;;16.67;11.95;;;10.10;99.90;;;;;;5125138;28;20048;-67
2022/05/05 06:47:08;;;;;;;18.55;11.90;;;10.30;99.90;;;;;;5126206;28;20046;-67
2022/05/05 06:49:34;;;;;;;18.00;12.25;;;10.30;99.90;;;;;;5124118;28;20162;-67
2022/05/05 06:52:00;;;;;;;16.77;11.23;;;10.50;99.90;;;;;;5143079;27;20043;-67
2022/05/05 06:54:27;;;;;;;16.27;10.73;;;10.60;99.90;;;;;;5125362;28;20073;-67
2022/05/05 06:56:54;;;;;;;17.73;10.60;;;10.60;99.90;;;;;;5124420;28;20082;-66
2022/05/05 06:59:20;;;;;;;16.63;11.30;;;10.80;99.90;;;;;;5116619;28;20043;-62
2022/05/05 07:01:56;;;;;;;15.35;10.65;;;10.90;99.90;;;;;;5127041;28;20055;-62
2022/05/05 07:07:13;;;;;;;14.38;10.05;;;11.10;99.90;;;;;;5120946;28;20078;-63
2022/05/05 07:12:28;;;;;;;15.10;10.57;;;11.40;99.90;;;;;;5123902;28;20086;-63
2022/05/05 07:14:54;;;;;;;15.50;10.52;;;11.60;99.90;;;;;;5125272;28;20043;-63
2022/05/05 07:17:20;;;;;;;16.65;9.77;;;11.70;99.90;;;;;;5124582;28;20096;-64
2022/05/05 07:19:46;;;;;;;13.15;7.78;;;11.80;99.90;;;;;;5123535;28;20048;-64
2022/05/05 07:22:11;;;;;;;15.10;8.15;;;11.90;99.90;;;;;;5115513;28;20047;-65
2022/05/05 07:24:37;;;;;;;14.68;8.18;;;12.00;99.90;;;;;;5121072;28;20103;-64
2022/05/05 07:27:04;;;;;;;12.82;7.07;;;12.00;99.90;;;;;;5124689;28;20044;-65
2022/05/05 07:29:30;;;;;;;12.27;6.30;;;12.10;99.90;;;;;;5123155;28;20040;-62
2022/05/05 07:31:56;;;;;;;11.82;7.15;;;12.10;99.90;;;;;;5122972;28;20040;-62
2022/05/05 07:34:23;;;;;;;10.68;6.32;;;12.20;99.90;;;;;;5126927;28;20082;-63
2022/05/05 07:36:49;;;;;;;10.88;7.07;;;12.40;99.90;;;;;;5120989;28;20043;-63
2022/05/05 07:39:15;;;;;;;10.15;6.10;;;12.30;99.90;;;;;;5107504;28;20059;-63
2022/05/05 07:41:41;;;;;;;12.60;6.30;;;12.40;99.90;;;;;;5103546;28;20044;-64
2022/05/05 07:44:08;;;;;;;16.52;6.47;;;12.50;99.90;;;;;;5125565;28;20065;-63
2022/05/05 07:46:34;;;;;;;200.63;18.83;;;12.60;99.90;;;;;;5121749;28;20046;-63
2022/05/05 07:49:01;;;;;;;12.63;6.38;;;12.60;99.90;;;;;;5108041;28;20123;-63
2022/05/05 07:51:28;;;;;;;15.75;7.20;;;12.70;99.90;;;;;;5118137;28;20055;-63
2022/05/05 07:56:39;;;;;;;9.60;6.25;;;12.80;99.90;;;;;;5124707;28;20535;-63
2022/05/05 07:59:05;;;;;;;12.70;7.07;;;12.90;99.90;;;;;;5124354;28;20130;-63
2022/05/05 08:01:30;;;;;;;10.80;5.72;;;13.00;99.90;;;;;;5110733;28;20058;-63
2022/05/05 08:03:56;;;;;;;12.80;6.35;;;13.00;99.90;;;;;;5115815;28;20388;-63
2022/05/05 08:06:22;;;;;;;10.75;6.20;;;13.10;99.90;;;;;;5114148;28;20042;-63
2022/05/05 08:08:48;;;;;;;14.88;7.15;;;13.20;99.90;;;;;;5111995;28;20082;-63
2022/05/05 08:11:13;;;;;;;11.98;5.07;;;13.20;99.90;;;;;;5122176;28;20048;-63
2022/05/05 08:13:39;;;;;;;11.55;6.55;;;13.30;99.90;;;;;;5122769;28;20042;-65
2022/05/05 08:16:05;;;;;;;15.88;7.07;;;13.40;99.90;;;;;;5123895;28;20073;-66
2022/05/05 08:18:31;;;;;;;9.38;6.28;;;13.40;99.90;;;;;;5118642;28;20396;-66
2022/05/05 08:20:57;;;;;;;14.10;6.72;;;13.60;99.90;;;;;;5120574;28;20048;-66
2022/05/05 08:23:22;;;;;;;12.98;6.90;;;13.60;99.90;;;;;;5116989;28;20040;-66
2022/05/05 08:28:36;;;;;;;9.45;6.32;;;13.70;99.90;;;;;;5123382;28;20065;-66
2022/05/05 08:31:03;;;;;;;11.77;6.67;;;13.90;99.90;;;;;;5125311;28;20052;-66
2022/05/05 08:33:29;;;;;;;10.70;6.13;;;13.80;99.90;;;;;;5122901;28;20091;-66
2022/05/05 08:35:56;;;;;;;11.77;6.07;;;13.90;99.90;;;;;;5119977;28;20072;-66
2022/05/05 08:38:22;;;;;;;11.82;6.75;;;13.90;99.90;;;;;;5116097;28;20039;-66
2022/05/05 08:40:48;;;;;;;11.00;5.32;;;14.00;99.90;;;;;;5124162;28;20051;-66
2022/05/05 08:43:14;;;;;;;11.95;7.40;;;14.10;99.90;;;;;;5119271;28;20043;-66
2022/05/05 08:45:40;;;;;;;15.80;6.22;;;14.10;99.90;;;;;;5122291;28;20112;-66
2022/05/05 08:48:07;;;;;;;10.45;6.15;;;14.10;99.90;;;;;;5116408;28;20044;-66
2022/05/05 08:50:47;;;;;;;10.52;5.75;;;14.20;99.90;;;;;;5118818;28;20048;-65
2022/05/05 08:53:15;;;;;;;11.55;6.10;;;14.30;99.90;;;;;;5115223;28;20070;-66
2022/05/05 08:55:43;;;;;;;14.65;6.55;;;14.40;99.90;;;;;;5114535;28;20075;-66
2022/05/05 08:58:09;;;;;;;11.82;6.32;;;14.50;99.90;;;;;;5122202;28;20058;-63
2022/05/05 09:00:35;;;;;;;11.00;6.10;;;14.60;99.90;;;;;;5123063;28;20043;-63
2022/05/05 09:03:04;;;;;;;11.07;5.80;;;14.80;99.90;;;;;;5124110;28;20044;-66
2022/05/05 09:05:45;;;;;;;9.73;6.53;;;14.80;99.90;;;;;;5123613;28;20059;-66
2022/05/05 09:08:26;;;;;;;49.97;9.07;;;14.90;99.90;;;;;;5118672;28;20059;-64
2022/05/05 09:11:06;;;;;;;11.80;6.13;;;14.90;99.90;;;;;;5117389;28;20051;-67
2022/05/05 09:13:34;;;;;;;10.25;5.40;;;15.00;99.90;;;;;;5119454;28;20043;-66
2022/05/05 09:16:02;;;;;;;11.45;5.78;;;15.10;99.90;;;;;;5118622;28;20056;-67
2022/05/05 09:18:30;;;;;;;8.98;5.43;;;15.20;99.90;;;;;;5137966;27;20048;-68
2022/05/05 09:20:58;;;;;;;10.23;5.20;;;15.10;99.90;;;;;;5117604;28;20036;-67
2022/05/05 09:24:34;;;;;;;9.88;6.05;;;15.10;99.90;;;;;;5118365;28;20036;-67
2022/05/05 09:26:25;;;;;;;8.25;4.80;;;15.20;99.90;;;;;;5123318;28;20156;-72
2022/05/05 09:28:51;;;;;;;7.88;5.43;;;15.30;99.90;;;;;;5115747;28;20043;-67
2022/05/05 09:31:17;;;;;;;9.77;5.03;;;15.40;99.90;;;;;;5139841;27;20040;-68
2022/05/05 09:33:44;;;;;;;10.00;5.30;;;15.50;99.90;;;;;;5113683;28;20032;-67
2022/05/05 09:36:12;;;;;;;7.18;5.40;;;15.60;99.90;;;;;;5123137;28;20055;-67
2022/05/05 09:39:01;;;;;;;10.20;5.80;;;15.60;99.90;;;;;;5119863;28;20065;-67
2022/05/05 09:41:29;;;;;;;9.02;6.05;;;15.60;99.90;;;;;;5122173;28;20039;-66
2022/05/05 09:43:56;;;;;;;8.05;5.97;;;15.40;99.90;;;;;;5123306;28;20036;-66
2022/05/05 09:46:22;;;;;;;6.60;4.63;;;15.60;99.90;;;;;;5113818;28;20047;-66
2022/05/05 09:49:07;;;;;;;11.82;10.48;;;15.60;99.90;;;;;;5095684;28;20614;-66
2022/05/05 09:51:39;;;;;;;10.52;6.20;;;15.90;99.90;;;;;;5112976;28;20055;-66
2022/05/05 09:59:46;;;;;;;10.18;6.03;;;16.20;99.90;;;;;;5124107;28;20141;-66
2022/05/05 10:04:00;;;;;;;8.60;6.25;;;16.20;99.90;;;;;;5125035;28;20040;-66
2022/05/05 10:05:08;;;;;;;8.75;6.43;;;16.40;99.90;;;;;;5125308;28;20044;-65
2022/05/05 10:07:35;;;;;;;8.85;5.32;;;16.40;99.90;;;;;;5124365;28;20094;-65
2022/05/05 10:10:02;;;;;;;9.48;6.60;;;16.60;99.90;;;;;;5121648;28;20103;-66
2022/05/05 10:12:28;;;;;;;10.90;6.75;;;16.70;99.90;;;;;;5121179;28;20055;-66
2022/05/05 10:14:56;;;;;;;9.68;6.10;;;16.70;99.90;;;;;;5116613;28;20387;-66
2022/05/05 10:17:23;;;;;;;9.32;5.78;;;16.80;99.90;;;;;;5122279;28;20047;-66
2022/05/05 10:19:49;;;;;;;11.65;6.90;;;16.80;99.90;;;;;;5118753;28;20428;-66
2022/05/05 10:22:30;;;;;;;8.82;5.85;;;16.70;99.90;;;;;;5115629;28;20104;-66
2022/05/05 10:25:05;;;;;;;9.00;5.93;;;17.00;99.90;;;;;;5119602;28;20044;-66
2022/05/05 10:27:30;;;;;;;9.07;5.65;;;17.00;99.90;;;;;;5125416;28;20059;-66
2022/05/05 10:29:56;;;;;;;10.55;6.38;;;17.10;99.90;;;;;;5126695;28;20035;-66
2022/05/05 10:32:25;;;;;;;11.05;6.88;;;17.20;99.90;;;;;;5116094;28;20137;-66
2022/05/05 10:35:14;;;;;;;10.63;6.72;;;17.10;99.90;;;;;;5118579;28;20044;-67
2022/05/05 10:37:40;;;;;;;9.80;5.80;;;17.20;99.90;;;;;;5117364;28;20107;-67
2022/05/05 10:40:07;;;;;;;11.32;6.32;;;17.20;99.90;;;;;;5107347;28;20101;-66
2022/05/05 10:42:40;;;;;;;10.07;6.13;;;17.20;99.90;;;;;;5126534;28;20121;-67
2022/05/05 10:45:10;;;;;;;12.75;6.18;;;17.30;99.90;;;;;;5122187;28;20114;-67
2022/05/05 10:48:12;;;;;;;12.82;6.50;;;17.40;99.90;;;;;;5126779;28;20048;-67
2022/05/05 10:50:56;;;;;;;10.65;6.90;;;17.50;99.90;;;;;;5100736;28;20059;-67
2022/05/05 10:53:41;;;;;;;12.40;6.55;;;17.30;99.90;;;;;;5122070;28;20047;-67
2022/05/05 10:56:38;;;;;;;8.65;6.40;;;17.50;99.90;;;;;;5123265;28;20101;-67
2022/05/05 10:59:10;;;;;;;9.63;6.22;;;17.50;99.90;;;;;;5097369;28;20161;-67
2022/05/05 11:01:41;;;;;;;9.52;6.47;;;17.60;99.90;;;;;;5125056;28;20042;-67
2022/05/05 11:04:17;;;;;;;7.85;5.32;;;17.80;99.90;;;;;;5125045;28;20047;-67
2022/05/05 11:06:43;;;;;;;10.07;5.72;;;17.80;99.90;;;;;;5120481;28;20114;-67
2022/05/05 11:09:27;;;;;;;11.80;5.68;;;17.90;99.90;;;;;;5123686;28;20059;-67
2022/05/05 11:12:14;;;;;;;5.82;4.10;;;18.00;99.90;;;;;;5116953;28;20054;-67
2022/05/05 11:23:45;;;;;;;4.57;3.42;;;18.30;99.90;;;;;;5122376;28;20062;-67
2022/05/05 11:26:15;;;;;;;6.10;3.78;;;18.30;99.90;;;;;;5125125;28;20039;-67
2022/05/05 11:28:41;;;;;;;;;;;18.40;99.90;;;;;;5109809;28;20534;-67
2022/05/05 11:31:23;;;;;;;5.70;4.03;;;18.30;99.30;;;;;;5125672;28;19915;-67
2022/05/05 11:33:54;;;;;;;12.13;5.78;;;18.40;99.10;;;;;;5121578;28;20040;-67
2022/05/05 11:36:24;;;;;;;7.57;4.93;;;18.30;99.90;;;;;;5120521;28;20051;-67
2022/05/05 11:38:51;;;;;;;;;;;18.30;99.90;;;;;;5119518;28;20052;-67
2022/05/05 11:41:18;;;;;;;9.68;6.35;;;18.50;99.90;;;;;;5123228;28;19955;-67
2022/05/05 11:46:28;;;;;;;7.03;5.13;;;18.60;99.90;;;;;;5109631;28;20188;-67
2022/05/05 11:48:55;;;;;;;9.35;4.65;;;18.70;99.90;;;;;;5115404;28;20052;-67
2022/05/05 11:51:29;;;;;;;15.63;6.00;;;19.00;99.90;;;;;;5107312;28;20046;-67
2022/05/05 11:54:12;;;;;;;69.90;9.43;;;19.00;99.90;;;;;;5116639;28;20050;-67
2022/05/05 11:56:47;;;;;;;8.95;5.90;;;18.90;99.90;;;;;;5119364;28;20047;-67
2022/05/05 12:02:05;;;;;;;8.00;5.55;;;18.90;99.90;;;;;;5114104;28;20055;-67
2022/05/05 12:04:36;;;;;;;6.70;4.90;;;19.10;99.90;;;;;;5119681;28;20495;-67
2022/05/05 12:07:03;;;;;;;7.65;5.15;;;19.00;99.90;;;;;;5124573;28;20051;-67
2022/05/05 12:09:30;;;;;;;9.32;5.70;;;19.10;99.90;;;;;;5119142;28;20207;-67
2022/05/05 12:11:55;;;;;;;13.18;5.97;;;19.00;99.90;;;;;;5117513;28;20039;-67
2022/05/05 12:14:25;;;;;;;8.88;4.45;;;19.00;99.90;;;;;;5119420;28;20050;-68
2022/05/05 12:16:51;;;;;;;8.52;5.47;;;19.10;99.90;;;;;;5122496;28;20096;-68
2022/05/05 12:19:19;;;;;;;7.90;6.18;;;19.30;99.90;;;;;;5109302;28;20792;-67
2022/05/05 12:21:52;;;;;;;8.85;4.90;;;19.40;99.90;;;;;;5109683;28;20546;-68
2022/05/05 12:24:20;;;;;;;13.38;5.22;;;19.60;99.90;;;;;;5111735;28;20055;-67
2022/05/05 12:26:46;;;;;;;10.82;5.47;;;19.90;99.90;;;;;;5111864;28;20044;-68
2022/05/05 12:29:14;;;;;;;13.57;5.88;;;20.10;99.90;;;;;;5114614;28;20046;-68
2022/05/05 12:31:49;;;;;;;8.35;5.30;;;20.20;99.90;;;;;;5113624;28;20965;-68
2022/05/05 12:34:27;;;;;;;17.13;5.40;;;20.40;99.90;;;;;;5113581;28;20051;-68
2022/05/05 12:37:09;;;;;;;7.57;6.00;;;20.50;99.90;;;;;;5122056;28;20046;-68
2022/05/05 12:39:47;;;;;;;8.05;4.88;;;20.60;99.80;;;;;;5121543;28;20052;-68
2022/05/05 12:42:14;;;;;;;6.43;4.47;;;20.60;98.30;;;;;;5110381;28;20040;-68
2022/05/05 12:44:43;;;;;;;7.35;4.85;;;20.60;97.00;;;;;;5109938;28;20070;-68
2022/05/05 12:47:08;;;;;;;20.63;10.10;;;20.70;97.60;;;;;;5065291;28;20510;-68
2022/05/05 12:49:44;;;;;;;5.88;4.43;;;20.80;97.70;;;;;;5077423;28;20059;-68
2022/05/05 13:00:23;;;;;;;5.75;4.80;;;20.60;92.90;;;;;;5094835;28;20073;-68
2022/05/05 13:02:49;;;;;;;8.27;4.53;;;20.50;92.80;;;;;;5111629;28;20693;-68
2022/05/05 13:05:15;;;;;;;6.93;4.60;;;20.20;92.50;;;;;;5085914;28;20043;-63
2022/05/05 13:07:41;;;;;;;10.20;5.07;;;20.30;93.80;;;;;;5103800;28;20071;-64
2022/05/05 13:10:07;;;;;;;6.75;3.63;;;20.40;93.20;;;;;;5093980;28;20062;-63
2022/05/05 13:12:33;;;;;;;7.60;4.70;;;20.40;94.90;;;;;;5112384;28;20328;-62
2022/05/05 13:14:58;;;;;;;7.90;4.43;;;20.60;93.40;;;;;;5112384;27;20112;-64
2022/05/05 13:17:25;;;;;;;9.07;4.20;;;20.70;92.10;;;;;;5111135;28;20042;-63
2022/05/05 13:19:50;;;;;;;5.05;4.22;;;20.60;92.40;;;;;;5112343;28;20047;-64
2022/05/05 13:22:16;;;;;;;8.57;4.57;;;20.70;91.10;;;;;;5115811;28;20142;-64
2022/05/05 13:24:42;;;;;;;6.53;4.97;;;20.60;90.50;;;;;;5096556;28;20058;-64
2022/05/05 13:27:08;;;;;;;7.97;4.28;;;20.50;92.30;;;;;;5103292;28;20059;-63
2022/05/05 13:29:33;;;;;;;5.50;3.90;;;20.30;91.30;;;;;;5101922;28;20054;-64
2022/05/05 13:31:59;;;;;;;5.40;4.20;;;20.20;91.30;;;;;;5099141;28;20063;-64
2022/05/05 13:34:25;;;;;;;4.70;3.63;;;20.40;93.20;;;;;;5099398;28;20052;-64
2022/05/05 13:36:51;;;;;;;5.32;3.47;;;20.40;93.60;;;;;;5093010;28;20035;-64